createdAt,value
2022-07-25T00:00:24.501Z,6.97
2022-07-25T00:02:50.887Z,7.57
2022-07-25T00:05:17.211Z,7.82
2022-07-25T00:07:43.557Z,7.70
2022-07-25T00:10:10.226Z,7.65
2022-07-25T00:12:36.606Z,7.60
2022-07-25T00:15:03.179Z,8.18
2022-07-25T00:17:29.552Z,8.05
2022-07-25T00:19:55.946Z,8.90
2022-07-25T00:22:22.300Z,8.40
2022-07-25T00:24:48.613Z,7.95
2022-07-25T00:27:15.007Z,7.78
2022-07-25T00:29:41.374Z,8.05
2022-07-25T00:32:07.767Z,7.72
2022-07-25T00:34:34.106Z,7.40
2022-07-25T00:37:00.447Z,7.63
2022-07-25T00:39:26.897Z,7.43
2022-07-25T00:41:53.260Z,7.93
2022-07-25T00:44:26.722Z,8.10
2022-07-25T00:46:53.729Z,7.97
2022-07-25T00:49:20.337Z,7.40
2022-07-25T00:51:47.079Z,7.55
2022-07-25T00:54:13.915Z,7.43
2022-07-25T00:56:40.642Z,7.65
2022-07-25T00:59:07.001Z,7.40
2022-07-25T01:01:33.535Z,7.15
2022-07-25T01:03:59.925Z,7.78
2022-07-25T01:06:26.792Z,7.72
2022-07-25T01:08:53.802Z,7.93
2022-07-25T01:11:20.204Z,8.07
2022-07-25T01:13:46.534Z,8.05
2022-07-25T01:16:12.931Z,8.02
2022-07-25T01:18:39.441Z,8.10
2022-07-25T01:21:06.042Z,8.13
2022-07-25T01:23:32.622Z,7.95
2022-07-25T01:25:59.007Z,8.70
2022-07-25T01:28:25.393Z,8.10
2022-07-25T01:30:52.028Z,8.07
2022-07-25T01:33:19.425Z,8.20
2022-07-25T01:35:46.358Z,7.95
2022-07-25T01:38:12.952Z,8.43
2022-07-25T01:40:40.019Z,8.18
2022-07-25T01:43:06.746Z,7.78
2022-07-25T01:45:33.070Z,8.55
2022-07-25T01:47:59.484Z,8.10
2022-07-25T01:50:26.098Z,7.95
2022-07-25T01:52:52.559Z,8.90
2022-07-25T01:55:19.112Z,8.30
2022-07-25T01:57:49.831Z,8.07
2022-07-25T02:00:16.899Z,8.38
2022-07-25T02:02:43.870Z,7.88
2022-07-25T02:05:11.079Z,8.32
2022-07-25T02:07:37.541Z,7.95
2022-07-25T02:10:05.002Z,8.05
2022-07-25T02:12:31.358Z,8.70
2022-07-25T02:14:57.671Z,8.70
2022-07-25T02:17:24.029Z,8.68
2022-07-25T02:19:50.436Z,8.57
2022-07-25T02:22:16.787Z,8.25
2022-07-25T02:24:43.562Z,9.38
2022-07-25T02:27:10.290Z,8.40
2022-07-25T02:29:36.671Z,8.20
2022-07-25T02:32:03.277Z,8.88
2022-07-25T02:34:29.626Z,8.50
2022-07-25T02:36:55.934Z,9.15
2022-07-25T02:39:22.362Z,9.50
2022-07-25T02:41:48.678Z,9.25
2022-07-25T02:44:15.001Z,8.02
2022-07-25T02:46:41.355Z,8.32
2022-07-25T02:49:07.741Z,8.88
2022-07-25T02:51:34.146Z,8.65
2022-07-25T02:54:00.469Z,9.25
2022-07-25T02:56:29.723Z,8.52
2022-07-25T02:58:57.248Z,8.73
2022-07-25T03:01:23.639Z,9.13
2022-07-25T03:03:50.072Z,8.90
2022-07-25T03:06:16.514Z,8.95
2022-07-25T03:08:42.846Z,8.93
2022-07-25T03:11:09.173Z,8.60
2022-07-25T03:13:35.527Z,8.05
2022-07-25T03:16:02.120Z,8.70
2022-07-25T03:18:28.467Z,9.13
2022-07-25T03:20:54.808Z,9.05
2022-07-25T03:23:21.176Z,8.32
2022-07-25T03:25:47.581Z,9.43
2022-07-25T03:28:13.924Z,8.73
2022-07-25T03:30:40.454Z,9.07
2022-07-25T03:33:06.813Z,8.57
2022-07-25T03:35:33.134Z,9.00
2022-07-25T03:38:01.634Z,9.05
2022-07-25T03:40:28.022Z,9.02
2022-07-25T03:42:54.327Z,9.50
2022-07-25T03:45:20.702Z,9.35
2022-07-25T03:47:47.001Z,9.93
2022-07-25T03:50:13.353Z,9.57
2022-07-25T03:52:39.760Z,9.80
2022-07-25T03:55:07.200Z,9.30
2022-07-25T03:57:33.548Z,9.38
2022-07-25T04:00:00.171Z,9.20
2022-07-25T04:02:26.960Z,9.27
2022-07-25T04:04:53.411Z,9.30
2022-07-25T04:07:19.746Z,9.38
2022-07-25T04:09:46.459Z,9.00
2022-07-25T04:12:12.788Z,9.43
2022-07-25T04:14:39.121Z,9.55
2022-07-25T04:17:06.288Z,9.27
2022-07-25T04:19:32.834Z,9.68
2022-07-25T04:21:59.191Z,9.80
2022-07-25T04:24:25.542Z,9.43
2022-07-25T04:26:51.854Z,8.85
2022-07-25T04:29:18.200Z,8.93
2022-07-25T04:31:44.650Z,9.38
2022-07-25T04:34:11.034Z,8.85
2022-07-25T04:36:37.377Z,8.77
2022-07-25T04:39:04.051Z,8.18
2022-07-25T04:41:30.423Z,8.65
2022-07-25T04:43:56.784Z,9.10
2022-07-25T04:46:23.353Z,7.75
2022-07-25T04:48:50.146Z,8.77
2022-07-25T04:51:17.333Z,9.27
2022-07-25T04:53:44.292Z,8.68
2022-07-25T04:56:10.622Z,8.23
2022-07-25T04:58:37.120Z,8.07
2022-07-25T05:01:03.550Z,8.35
2022-07-25T05:03:29.980Z,8.18
2022-07-25T05:05:56.330Z,8.25
2022-07-25T05:08:22.672Z,8.00
2022-07-25T05:10:49.026Z,8.15
2022-07-25T05:13:15.416Z,8.43
2022-07-25T05:15:42.649Z,8.40
2022-07-25T05:18:09.031Z,8.57
2022-07-25T05:20:35.386Z,8.05
2022-07-25T05:23:01.699Z,8.82
2022-07-25T05:25:29.098Z,9.20
2022-07-25T05:27:57.391Z,9.50
2022-07-25T05:30:23.974Z,9.57
2022-07-25T05:32:50.289Z,10.10
2022-07-25T05:35:16.631Z,10.35
2022-07-25T05:37:43.010Z,9.93
2022-07-25T05:40:09.433Z,9.73
2022-07-25T05:42:35.834Z,9.32
2022-07-25T05:45:02.335Z,9.00
2022-07-25T05:47:28.698Z,8.57
2022-07-25T05:49:55.042Z,8.68
2022-07-25T05:52:21.510Z,8.07
2022-07-25T05:54:47.937Z,9.88
2022-07-25T05:57:14.280Z,8.82
2022-07-25T05:59:40.641Z,9.90
2022-07-25T06:02:07.556Z,9.88
2022-07-25T06:04:34.088Z,9.70
2022-07-25T06:07:00.424Z,9.05
2022-07-25T06:09:26.814Z,8.60
2022-07-25T06:12:00.502Z,9.48
2022-07-25T06:14:27.806Z,9.25
2022-07-25T06:16:55.049Z,8.77
2022-07-25T06:19:21.486Z,9.10
2022-07-25T06:21:47.870Z,9.90
2022-07-25T06:24:14.189Z,9.82
2022-07-25T06:26:40.543Z,9.77
2022-07-25T06:29:06.950Z,9.38
2022-07-25T06:31:33.389Z,9.90
2022-07-25T06:33:59.731Z,9.60
2022-07-25T06:36:32.575Z,9.70
2022-07-25T06:38:59.654Z,9.70
2022-07-25T06:41:26.005Z,9.45
2022-07-25T06:43:52.366Z,9.45
2022-07-25T06:46:18.799Z,9.40
2022-07-25T06:48:45.405Z,9.63
2022-07-25T06:51:11.813Z,9.57
2022-07-25T06:53:38.213Z,9.52
2022-07-25T06:56:04.791Z,9.43
2022-07-25T06:58:31.166Z,9.35
2022-07-25T07:00:57.620Z,9.18
2022-07-25T07:03:24.174Z,9.63
2022-07-25T07:05:50.612Z,9.10
2022-07-25T07:08:16.985Z,8.82
2022-07-25T07:10:43.670Z,8.68
2022-07-25T07:13:11.908Z,8.90
2022-07-25T07:15:39.022Z,9.00
2022-07-25T07:18:06.558Z,9.68
2022-07-25T07:20:32.917Z,9.00
2022-07-25T07:22:59.232Z,9.65
2022-07-25T07:25:28.511Z,8.73
2022-07-25T07:27:55.129Z,9.27
2022-07-25T07:30:24.435Z,8.35
2022-07-25T07:32:53.715Z,8.07
2022-07-25T07:35:20.101Z,9.15
2022-07-25T07:37:46.567Z,8.27
2022-07-25T07:40:17.840Z,8.68
2022-07-25T07:42:45.852Z,8.13
2022-07-25T07:45:16.854Z,7.47
2022-07-25T07:47:43.317Z,7.40
2022-07-25T07:50:11.404Z,7.55
2022-07-25T07:52:38.034Z,7.82
2022-07-25T07:55:23.205Z,7.72
2022-07-25T07:57:50.530Z,8.20
2022-07-25T08:00:17.130Z,7.57
2022-07-25T08:02:47.188Z,7.45
2022-07-25T08:05:19.421Z,7.22
2022-07-25T08:07:45.810Z,7.55
2022-07-25T08:10:12.264Z,7.10
2022-07-25T08:12:42.058Z,7.10
2022-07-25T08:15:09.334Z,7.57
2022-07-25T08:17:35.834Z,6.63
2022-07-25T08:20:27.958Z,7.32
2022-07-25T08:22:56.601Z,7.03
2022-07-25T08:25:23.330Z,6.82
2022-07-25T08:27:49.801Z,6.38
2022-07-25T08:30:16.799Z,7.22
2022-07-25T08:33:05.548Z,7.35
2022-07-25T08:35:32.758Z,7.18
2022-07-25T08:37:59.370Z,7.78
2022-07-25T08:40:26.435Z,8.30
2022-07-25T08:42:54.851Z,7.20
2022-07-25T08:45:21.630Z,8.88
2022-07-25T08:47:48.989Z,7.60
2022-07-25T08:50:19.344Z,9.38
2022-07-25T08:52:47.530Z,8.70
2022-07-25T08:55:15.693Z,8.23
2022-07-25T08:57:43.836Z,9.85
2022-07-25T09:00:14.099Z,8.63
2022-07-25T09:02:40.911Z,9.45
2022-07-25T09:05:07.716Z,8.93
2022-07-25T09:07:35.421Z,8.48
2022-07-25T09:10:31.325Z,8.27
2022-07-25T09:13:02.817Z,7.70
2022-07-25T09:15:36.685Z,7.95
2022-07-25T09:18:08.137Z,8.30
2022-07-25T09:20:38.364Z,8.05
2022-07-25T09:23:04.766Z,8.60
2022-07-25T09:25:31.255Z,8.38
2022-07-25T09:28:14.242Z,8.48
2022-07-25T09:30:41.543Z,8.30
2022-07-25T09:33:07.957Z,9.52
2022-07-25T09:35:38.482Z,9.00
2022-07-25T09:38:11.756Z,9.23
2022-07-25T09:40:38.130Z,8.60
2022-07-25T09:43:04.520Z,8.80
2022-07-25T09:45:31.655Z,8.43
2022-07-25T09:48:02.572Z,9.30
2022-07-25T09:50:30.370Z,8.63
2022-07-25T09:52:57.788Z,8.40
2022-07-25T09:55:24.167Z,8.52
2022-07-25T09:57:52.455Z,8.63
2022-07-25T10:00:20.386Z,8.77
2022-07-25T10:02:49.930Z,8.60
2022-07-25T10:05:26.547Z,8.75
2022-07-25T10:07:54.380Z,8.50
2022-07-25T10:10:25.697Z,8.45
2022-07-25T10:13:18.398Z,8.07
2022-07-25T10:15:44.840Z,9.20
2022-07-25T10:18:12.075Z,8.90
2022-07-25T10:20:38.484Z,9.02
2022-07-25T10:23:05.166Z,8.30
2022-07-25T10:25:31.513Z,8.13
2022-07-25T10:28:08.181Z,8.35
2022-07-25T10:30:35.895Z,8.50
2022-07-25T10:33:04.220Z,8.38
2022-07-25T10:35:31.068Z,8.35
2022-07-25T10:37:58.043Z,8.20
2022-07-25T10:40:25.656Z,8.00
2022-07-25T10:42:56.108Z,8.23
2022-07-25T10:45:25.901Z,8.05
2022-07-25T10:47:55.837Z,7.88
2022-07-25T10:50:40.194Z,8.32
2022-07-25T10:53:09.794Z,8.40
2022-07-25T10:55:36.831Z,8.38
2022-07-25T10:58:20.301Z,8.13
2022-07-25T11:00:46.693Z,8.23
2022-07-25T11:03:17.848Z,8.50
2022-07-25T11:05:47.927Z,7.78
2022-07-25T11:08:22.757Z,8.13
2022-07-25T11:10:53.212Z,8.85
2022-07-25T11:13:19.542Z,8.07
2022-07-25T11:15:46.669Z,8.10
2022-07-25T11:18:13.033Z,8.23
2022-07-25T11:20:39.467Z,7.97
2022-07-25T11:23:06.615Z,8.18
2022-07-25T11:25:32.986Z,7.68
2022-07-25T11:28:00.442Z,8.40
2022-07-25T11:30:30.968Z,8.40
2022-07-25T11:32:58.990Z,8.40
2022-07-25T11:35:29.957Z,8.70
2022-07-25T11:37:56.931Z,8.20
2022-07-25T11:40:24.004Z,8.57
2022-07-25T11:42:52.040Z,8.13
2022-07-25T11:45:28.539Z,8.50
2022-07-25T11:48:04.762Z,8.25
2022-07-25T11:50:32.068Z,8.35
2022-07-25T11:52:59.203Z,7.45
2022-07-25T11:55:28.686Z,7.50
2022-07-25T11:57:57.926Z,7.60
2022-07-25T12:00:24.391Z,7.28
2022-07-25T12:02:50.825Z,7.45
2022-07-25T12:05:18.685Z,6.90
2022-07-25T12:07:49.237Z,7.30
2022-07-25T12:10:16.437Z,6.35
2022-07-25T12:12:42.778Z,6.10
2022-07-25T12:15:10.155Z,6.03
2022-07-25T12:17:36.727Z,6.35
2022-07-25T12:20:05.683Z,6.28
2022-07-25T12:22:35.710Z,5.95
2022-07-25T12:25:02.082Z,5.90
2022-07-25T12:27:28.488Z,6.07
2022-07-25T12:29:54.862Z,5.78
2022-07-25T12:32:21.203Z,5.63
2022-07-25T12:34:47.572Z,5.68
2022-07-25T12:37:13.954Z,5.95
2022-07-25T12:39:40.473Z,5.50
2022-07-25T12:42:06.812Z,5.65
2022-07-25T12:44:33.149Z,6.03
2022-07-25T12:46:59.494Z,6.15
2022-07-25T12:49:25.904Z,5.65
2022-07-25T12:51:57.667Z,5.50
2022-07-25T12:54:24.467Z,5.80
2022-07-25T12:56:50.827Z,5.78
2022-07-25T12:59:17.216Z,6.05
2022-07-25T13:01:43.641Z,6.25
2022-07-25T13:04:10.274Z,5.88
2022-07-25T13:06:38.769Z,6.07
2022-07-25T13:09:06.051Z,6.00
2022-07-25T13:11:32.656Z,6.60
2022-07-25T13:13:59.104Z,6.30
2022-07-25T13:16:25.733Z,6.18
2022-07-25T13:18:52.114Z,5.50
2022-07-25T13:21:20.018Z,5.68
2022-07-25T13:23:46.390Z,5.60
2022-07-25T13:26:12.805Z,5.68
2022-07-25T13:28:39.119Z,5.50
2022-07-25T13:31:08.513Z,5.78
2022-07-25T13:33:34.886Z,5.43
2022-07-25T13:36:01.338Z,5.80
2022-07-25T13:38:27.664Z,5.10
2022-07-25T13:40:58.701Z,5.15
2022-07-25T13:43:25.296Z,5.55
2022-07-25T13:45:51.676Z,5.60
2022-07-25T13:48:29.447Z,5.70
2022-07-25T13:50:57.373Z,5.45
2022-07-25T13:53:28.076Z,5.78
2022-07-25T13:55:56.484Z,5.95
2022-07-25T13:58:22.814Z,6.05
2022-07-25T14:00:49.218Z,5.82
2022-07-25T14:03:15.770Z,5.75
2022-07-25T14:05:42.177Z,5.53
2022-07-25T14:08:08.538Z,5.63
2022-07-25T14:10:35.025Z,5.45
2022-07-25T14:13:01.446Z,6.10
2022-07-25T14:15:27.850Z,5.88
2022-07-25T14:17:54.222Z,5.82
2022-07-25T14:20:20.849Z,5.53
2022-07-25T14:22:47.233Z,5.82
2022-07-25T14:25:13.610Z,5.97
2022-07-25T14:27:40.246Z,5.88
2022-07-25T14:30:08.964Z,6.55
2022-07-25T14:32:36.319Z,5.47
2022-07-25T14:35:03.202Z,6.15
2022-07-25T14:37:31.301Z,6.18
2022-07-25T14:40:01.663Z,6.15
2022-07-25T14:42:28.319Z,6.00
2022-07-25T14:44:54.901Z,5.90
2022-07-25T14:47:21.658Z,5.85
2022-07-25T14:49:48.441Z,5.40
2022-07-25T14:52:15.672Z,5.65
2022-07-25T14:54:42.072Z,5.80
2022-07-25T14:57:09.389Z,6.28
2022-07-25T14:59:35.976Z,5.88
2022-07-25T15:02:02.635Z,5.60
2022-07-25T15:04:29.061Z,5.78
2022-07-25T15:06:55.549Z,5.45
2022-07-25T15:09:22.118Z,5.80
2022-07-25T15:11:49.059Z,5.75
2022-07-25T15:14:15.474Z,5.28
2022-07-25T15:16:42.931Z,5.78
2022-07-25T15:19:17.894Z,5.50
2022-07-25T15:21:45.108Z,5.70
2022-07-25T15:24:12.625Z,5.68
2022-07-25T15:26:39.255Z,5.60
2022-07-25T15:29:10.171Z,5.70
2022-07-25T15:31:37.235Z,5.80
2022-07-25T15:34:03.772Z,5.60
2022-07-25T15:36:30.185Z,5.60
2022-07-25T15:38:57.688Z,5.25
2022-07-25T15:41:24.100Z,5.43
2022-07-25T15:43:50.506Z,5.97
2022-07-25T15:46:16.939Z,5.50
2022-07-25T15:48:44.376Z,5.47
2022-07-25T15:51:10.926Z,5.50
2022-07-25T15:53:37.331Z,5.75
2022-07-25T15:56:04.373Z,5.95
2022-07-25T15:58:30.681Z,6.03
2022-07-25T16:00:57.168Z,6.30
2022-07-25T16:03:24.018Z,6.15
2022-07-25T16:05:50.655Z,5.88
2022-07-25T16:08:17.317Z,5.82
2022-07-25T16:10:43.805Z,5.88
2022-07-25T16:13:10.188Z,5.90
2022-07-25T16:15:36.586Z,5.50
2022-07-25T16:18:03.364Z,5.50
2022-07-25T16:20:31.311Z,5.70
2022-07-25T16:22:58.975Z,6.45
2022-07-25T16:25:25.908Z,6.70
2022-07-25T16:27:52.569Z,6.45
2022-07-25T16:30:20.066Z,5.97
2022-07-25T16:32:46.634Z,6.20
2022-07-25T16:35:12.999Z,6.30
2022-07-25T16:37:40.510Z,6.00
2022-07-25T16:40:08.069Z,6.03
2022-07-25T16:42:34.633Z,6.60
2022-07-25T16:45:00.986Z,6.18
2022-07-25T16:47:27.317Z,6.82
2022-07-25T16:49:53.637Z,6.38
2022-07-25T16:52:20.018Z,6.32
2022-07-25T16:54:46.631Z,6.18
2022-07-25T16:57:12.978Z,6.10
2022-07-25T16:59:39.316Z,6.28
2022-07-25T17:02:06.197Z,6.25
2022-07-25T17:04:33.476Z,5.95
2022-07-25T17:07:00.002Z,5.63
2022-07-25T17:09:26.358Z,6.00
2022-07-25T17:11:52.785Z,6.40
2022-07-25T17:14:19.183Z,6.10
2022-07-25T17:16:45.807Z,6.22
2022-07-25T17:19:12.132Z,6.22
2022-07-25T17:21:38.550Z,5.95
2022-07-25T17:24:04.991Z,5.90
2022-07-25T17:26:31.397Z,4.97
2022-07-25T17:28:59.470Z,4.72
2022-07-25T17:31:26.894Z,4.75
2022-07-25T17:33:53.246Z,4.18
2022-07-25T17:36:19.630Z,4.20
2022-07-25T17:38:46.167Z,4.13
2022-07-25T17:41:12.579Z,4.43
2022-07-25T17:43:39.027Z,4.00
2022-07-25T17:46:05.552Z,4.10
2022-07-25T17:48:31.925Z,3.60
2022-07-25T17:50:58.305Z,3.72
2022-07-25T17:53:24.666Z,3.90
2022-07-25T17:55:51.094Z,3.50
2022-07-25T17:58:17.561Z,3.30
2022-07-25T18:00:44.050Z,3.50
2022-07-25T18:03:10.431Z,3.65
2022-07-25T18:05:36.963Z,3.20
2022-07-25T18:08:03.392Z,3.67
2022-07-25T18:10:29.931Z,3.25
2022-07-25T18:12:56.254Z,3.25
2022-07-25T18:15:22.602Z,3.47
2022-07-25T18:17:48.975Z,3.17
2022-07-25T18:20:16.110Z,2.90
2022-07-25T18:22:42.502Z,3.20
2022-07-25T18:25:10.928Z,5.22
2022-07-25T18:27:37.680Z,6.32
2022-07-25T18:30:07.724Z,2.67
2022-07-25T18:32:34.689Z,4.60
2022-07-25T18:35:01.108Z,2.88
2022-07-25T18:37:27.616Z,3.30
2022-07-25T18:39:54.107Z,3.13
2022-07-25T18:42:20.509Z,3.20
2022-07-25T18:44:46.889Z,2.88
2022-07-25T18:47:13.712Z,3.05
2022-07-25T18:49:40.549Z,3.45
2022-07-25T18:52:06.898Z,3.30
2022-07-25T18:54:33.252Z,3.47
2022-07-25T18:56:59.635Z,2.88
2022-07-25T18:59:25.962Z,3.88
2022-07-25T19:01:52.893Z,3.55
2022-07-25T19:04:19.401Z,2.97
2022-07-25T19:06:45.770Z,3.50
2022-07-25T19:09:12.142Z,3.70
2022-07-25T19:11:42.170Z,3.75
2022-07-25T19:14:09.375Z,3.38
2022-07-25T19:16:36.115Z,3.50
2022-07-25T19:19:03.433Z,4.65
2022-07-25T19:21:29.833Z,4.03
2022-07-25T19:23:56.162Z,3.50
2022-07-25T19:26:22.597Z,3.47
2022-07-25T19:28:50.008Z,3.15
2022-07-25T19:31:16.949Z,3.20
2022-07-25T19:33:45.456Z,4.10
2022-07-25T19:36:12.382Z,2.75
2022-07-25T19:38:38.750Z,3.17
2022-07-25T19:41:05.096Z,3.55
2022-07-25T19:43:31.461Z,2.95
2022-07-25T19:45:57.845Z,3.63
2022-07-25T19:48:24.341Z,2.80
2022-07-25T19:50:51.468Z,3.20
2022-07-25T19:53:17.803Z,2.92
2022-07-25T19:55:44.129Z,3.28
2022-07-25T19:58:10.511Z,3.10
2022-07-25T20:00:37.519Z,3.30
2022-07-25T20:03:07.024Z,2.97
2022-07-25T20:05:33.434Z,3.35
2022-07-25T20:07:59.953Z,3.10
2022-07-25T20:10:26.295Z,3.13
2022-07-25T20:12:52.742Z,3.28
2022-07-25T20:15:19.159Z,3.17
2022-07-25T20:17:45.533Z,3.58
2022-07-25T20:20:12.058Z,3.38
2022-07-25T20:22:38.562Z,3.30
2022-07-25T20:25:05.855Z,3.40
2022-07-25T20:27:33.740Z,3.72
2022-07-25T20:30:03.147Z,3.13
2022-07-25T20:32:30.234Z,2.88
2022-07-25T20:34:57.052Z,3.00
2022-07-25T20:37:23.441Z,3.53
2022-07-25T20:39:52.036Z,3.20
2022-07-25T20:42:18.484Z,3.25
2022-07-25T20:44:44.974Z,2.90
2022-07-25T20:47:14.598Z,4.15
2022-07-25T20:49:40.923Z,3.50
2022-07-25T20:52:08.169Z,3.28
2022-07-25T20:54:35.074Z,2.95
2022-07-25T20:57:01.420Z,3.20
2022-07-25T20:59:27.752Z,3.13
2022-07-25T21:01:54.127Z,3.03
2022-07-25T21:04:21.154Z,3.17
2022-07-25T21:06:47.647Z,3.30
2022-07-25T21:09:14.568Z,2.92
2022-07-25T21:11:40.966Z,3.22
2022-07-25T21:14:07.530Z,3.38
2022-07-25T21:16:34.212Z,2.95
2022-07-25T21:19:00.699Z,2.80
2022-07-25T21:21:27.054Z,3.05
2022-07-25T21:23:53.448Z,2.90
2022-07-25T21:26:19.818Z,3.00
2022-07-25T21:28:46.264Z,2.97
2022-07-25T21:31:13.057Z,3.10
2022-07-25T21:33:39.502Z,3.22
2022-07-25T21:36:06.042Z,3.42
2022-07-25T21:38:34.988Z,2.90
2022-07-25T21:41:01.542Z,2.78
2022-07-25T21:43:27.951Z,2.85
2022-07-25T21:45:54.379Z,3.60
2022-07-25T21:48:42.825Z,3.22
2022-07-25T21:51:09.713Z,3.20
2022-07-25T21:53:45.611Z,2.97
2022-07-25T21:56:11.946Z,3.30
2022-07-25T21:58:38.404Z,3.10
2022-07-25T22:01:04.842Z,3.00
2022-07-25T22:03:32.062Z,2.80
2022-07-25T22:05:58.520Z,3.00
2022-07-25T22:08:25.137Z,3.28
2022-07-25T22:10:51.619Z,2.90
2022-07-25T22:13:18.642Z,3.00
2022-07-25T22:15:45.221Z,2.65
2022-07-25T22:18:11.579Z,2.90
2022-07-25T22:20:37.966Z,2.85
2022-07-25T22:23:04.417Z,2.88
2022-07-25T22:25:30.751Z,3.10
2022-07-25T22:27:57.216Z,2.92
2022-07-25T22:30:23.614Z,2.97
2022-07-25T22:32:50.081Z,3.17
2022-07-25T22:35:16.802Z,2.72
2022-07-25T22:37:44.087Z,3.20
2022-07-25T22:40:11.067Z,3.08
2022-07-25T22:42:37.399Z,2.90
2022-07-25T22:45:04.087Z,3.00
2022-07-25T22:47:30.542Z,2.97
2022-07-25T22:49:56.865Z,3.03
2022-07-25T22:52:23.197Z,2.75
2022-07-25T22:54:49.512Z,2.83
2022-07-25T22:57:15.873Z,3.30
2022-07-25T22:59:42.298Z,2.80
2022-07-25T23:02:08.696Z,3.30
2022-07-25T23:04:35.087Z,2.60
2022-07-25T23:07:01.547Z,2.83
2022-07-25T23:09:36.061Z,3.13
2022-07-25T23:12:03.473Z,2.83
2022-07-25T23:14:30.893Z,2.88
2022-07-25T23:17:15.980Z,3.10
2022-07-25T23:19:42.601Z,3.08
2022-07-25T23:22:08.917Z,2.95
2022-07-25T23:24:37.920Z,3.28
2022-07-25T23:27:04.673Z,2.90
2022-07-25T23:29:31.003Z,2.80
2022-07-25T23:31:57.385Z,2.90
2022-07-25T23:34:23.839Z,2.80
2022-07-25T23:36:50.358Z,2.70
2022-07-25T23:39:16.720Z,2.47
2022-07-25T23:41:43.074Z,2.30
2022-07-25T23:44:09.669Z,2.53
2022-07-25T23:46:38.595Z,2.88
2022-07-25T23:49:06.276Z,2.42
2022-07-25T23:51:32.978Z,2.78
2022-07-25T23:53:59.331Z,2.22
2022-07-25T23:56:25.688Z,2.70
2022-07-25T23:58:52.052Z,2.55
